Aeroporto :
LOGIN :

Iscrizione | Disclaimer

   EN    FR    IT 

 










Sommario :    VFR   VFR Marginale   IFR   IFR Intensivo   IFR Molto Intensivo
Visibilità : 
Base nubi : 
>= 8 km
>= 3000ft
5 / 8 km
1000 / 3000 ft
1500m / 5 km
500 / 1000 ft
800 / 1500m
200 / 500 ft
< 800m
< 200 ft
Simboli :   Temporali  Nebbia  Neve Forte  Precipitazioni Forti  Vento > 20 kt
SIGMETs :   Varie  Temporali  Ghiacco  Turbolenza  Onda orograficha  Ceneri Vulcaniche







- Altitudine del aeroporto : 56 ft
- Codice IATA : ILY
- Carte del aeroporto


EGPI - Islay

ULTIMO METAR :
  • 210820Z 29010KT 260V320 9999 SCT014 SCT031 11/08 Q1019

METARs OBSOLETI :
  • 210750Z 28008KT 250V320 9999 SCT012 SCT027 11/09 Q1019
  • 210720Z 30008KT 270V330 9999 FEW010 SCT030 10/10 Q1019
  • 210650Z 32004KT 280V040 9999 FEW007 SCT018 10/10 Q1019
  • 210620Z 32002KT 9999 FEW010 SCT018 08/08 Q1019
  • 210550Z AUTO 30001KT 9999 FEW009/// BKN018/// 08/08 Q1019
  • 210520Z AUTO 33002KT 9999 FEW010/// BKN019/// 07/07 Q1018

TAF TAF EGPI
Valido dal 21 a 06 ore il 21 a 15 ore UTC


210459Z 2106/2115 33009KT 9999 BKN012
BECMG 2106/2109 FEW015
Nessun NOTAM noto per questo aeroporto.



MetMap, La meteo Aeronautica in un colpo d'occhio ! - Copyright ORBIFLY Dicembre 2007 - Disclaimer

ORBIFLY MET'MAP TEAM :

Programmazione e sviluppo : Alexandra Zaïnal
Concezione e sviluppo : Baudouin d'Aumeries
Co-Programmazione e sviluppo : Marc-Olivier Méhu
Supporto tecnico e logistico : Manuel Goepfert
Aiuto per la traduzione : Arnaldo La Scala

Contatto : metmap@orbifly.com




FONTI E CREDITI :

   NOAA